N244BR KLAX-KPHX
Flight info
| Callsign | N244BR |
|---|---|
| Flight time | N/A |
| Altitude | 8000 |
| Route | KLAX KPHX DIRECT |
| Aircraft | C25C/L-VGD/A |
Departure
| Time | 2026-04-25 05:12 |
|---|---|
| Airport | Los Angeles International Airport (KLAX) |
Arrival
| Time | N/A |
|---|---|
| Airport | Phoenix Sky Harbor International Airport (KPHX) |
| Time | Latitude | Longitude | Altitude | Speed | Heading |
|---|---|---|---|---|---|
| 2026-04-25 04:45 | 33.93274 | -118.40566 | 120 ft | 0 kts | 175° |
| 2026-04-25 04:52 | 33.93282 | -118.40567 | 120 ft | 2 kts | 174° |
| 2026-04-25 04:53 | 33.93298 | -118.40569 | 120 ft | 2 kts | 174° |
| 2026-04-25 04:53 | 33.93314 | -118.40570 | 120 ft | 2 kts | 179° |
| 2026-04-25 04:53 | 33.93330 | -118.40566 | 120 ft | 2 kts | 196° |
| 2026-04-25 04:53 | 33.93336 | -118.40565 | 120 ft | 0 kts | 174° |
| 2026-04-25 05:05 | 33.93346 | -118.40567 | 116 ft | 2 kts | 166° |
| 2026-04-25 05:05 | 33.93361 | -118.40575 | 120 ft | 2 kts | 142° |
| 2026-04-25 05:06 | 33.93372 | -118.40589 | 119 ft | 2 kts | 114° |
| 2026-04-25 05:06 | 33.93374 | -118.40608 | 117 ft | 2 kts | 89° |
| 2026-04-25 05:06 | 33.93374 | -118.40617 | 118 ft | 0 kts | 84° |
| 2026-04-25 05:06 | 33.93385 | -118.40511 | 120 ft | 26 kts | 83° |
| 2026-04-25 05:07 | 33.93410 | -118.40263 | 118 ft | 30 kts | 82° |
| 2026-04-25 05:07 | 33.93436 | -118.40016 | 117 ft | 29 kts | 83° |
| 2026-04-25 05:07 | 33.93459 | -118.39780 | 119 ft | 28 kts | 83° |
| 2026-04-25 05:07 | 33.93482 | -118.39551 | 119 ft | 27 kts | 83° |
| 2026-04-25 05:08 | 33.93505 | -118.39331 | 119 ft | 26 kts | 83° |
| 2026-04-25 05:08 | 33.93528 | -118.39117 | 119 ft | 25 kts | 83° |
| 2026-04-25 05:08 | 33.93548 | -118.38910 | 119 ft | 25 kts | 82° |
| 2026-04-25 05:08 | 33.93569 | -118.38707 | 119 ft | 24 kts | 83° |
| 2026-04-25 05:09 | 33.93587 | -118.38510 | 119 ft | 24 kts | 85° |
| 2026-04-25 05:09 | 33.93606 | -118.38340 | 119 ft | 18 kts | 81° |
| 2026-04-25 05:09 | 33.93650 | -118.38278 | 117 ft | 0 kts | 8° |
| 2026-04-25 05:11 | 33.93728 | -118.38371 | 119 ft | 23 kts | 264° |
| 2026-04-25 05:12 | 33.93533 | -118.40363 | 300 ft | 202 kts | 263° |
| 2026-04-25 05:12 | 33.93362 | -118.42199 | 1156 ft | 246 kts | 263° |
| 2026-04-25 05:12 | 33.93128 | -118.44401 | 2003 ft | 255 kts | 262° |
| 2026-04-25 05:12 | 33.92884 | -118.46355 | 2818 ft | 224 kts | 262° |
| 2026-04-25 05:13 | 33.92650 | -118.48235 | 2935 ft | 227 kts | 261° |
| 2026-04-25 05:13 | 33.92394 | -118.50056 | 3332 ft | 216 kts | 262° |
| 2026-04-25 05:13 | 33.92203 | -118.51772 | 3933 ft | 197 kts | 262° |
| 2026-04-25 05:13 | 33.92029 | -118.53329 | 4520 ft | 179 kts | 263° |
| 2026-04-25 05:14 | 33.91861 | -118.54735 | 5100 ft | 161 kts | 258° |
| 2026-04-25 05:14 | 33.91590 | -118.55955 | 5669 ft | 141 kts | 248° |
| 2026-04-25 05:14 | 33.91361 | -118.56648 | 6036 ft | 127 kts | 246° |
| 2026-04-25 05:15 | 33.90206 | -118.58402 | 7118 ft | 180 kts | 223° |
| 2026-04-25 05:15 | 33.89083 | -118.59505 | 7785 ft | 239 kts | 220° |
| 2026-04-25 05:15 | 33.87686 | -118.60959 | 8403 ft | 292 kts | 221° |
| 2026-04-25 05:15 | 33.86039 | -118.62688 | 9024 ft | 335 kts | 221° |
| 2026-04-25 05:16 | 33.84235 | -118.64583 | 9632 ft | 333 kts | 220° |
| 2026-04-25 05:16 | 33.82541 | -118.66189 | 10206 ft | 290 kts | 217° |
| 2026-04-25 05:16 | 33.81022 | -118.67549 | 10747 ft | 256 kts | 214° |
| 2026-04-25 05:16 | 33.79528 | -118.68454 | 11260 ft | 227 kts | 194° |
| 2026-04-25 05:17 | 33.78037 | -118.68882 | 11479 ft | 217 kts | 191° |
| 2026-04-25 05:17 | 33.76556 | -118.69200 | 11510 ft | 216 kts | 191° |
| 2026-04-25 05:17 | 33.75075 | -118.69543 | 11508 ft | 217 kts | 191° |
| 2026-04-25 05:17 | 33.73589 | -118.69891 | 11509 ft | 218 kts | 191° |
| 2026-04-25 05:18 | 33.72098 | -118.70237 | 11507 ft | 219 kts | 192° |
| 2026-04-25 05:18 | 33.70602 | -118.70585 | 11509 ft | 219 kts | 191° |
| 2026-04-25 05:18 | 33.69103 | -118.70936 | 11509 ft | 220 kts | 191° |
| 2026-04-25 05:18 | 33.67601 | -118.71285 | 11509 ft | 220 kts | 192° |
| 2026-04-25 05:19 | 33.66099 | -118.71634 | 11509 ft | 220 kts | 191° |
| 2026-04-25 05:19 | 33.64595 | -118.71986 | 11510 ft | 220 kts | 191° |
| 2026-04-25 05:19 | 33.63087 | -118.72335 | 11510 ft | 221 kts | 192° |
| 2026-04-25 05:19 | 33.61579 | -118.72686 | 11511 ft | 221 kts | 191° |
| 2026-04-25 05:20 | 33.60066 | -118.73039 | 11512 ft | 221 kts | 191° |
| 2026-04-25 05:20 | 33.58557 | -118.73389 | 11512 ft | 221 kts | 192° |
| 2026-04-25 05:20 | 33.57047 | -118.73739 | 11512 ft | 221 kts | 191° |
| 2026-04-25 05:20 | 33.55537 | -118.74092 | 11512 ft | 221 kts | 191° |
| 2026-04-25 05:21 | 33.54034 | -118.74480 | 11510 ft | 221 kts | 197° |
| 2026-04-25 05:21 | 33.52568 | -118.75060 | 11488 ft | 222 kts | 200° |
| 2026-04-25 05:21 | 33.51167 | -118.75775 | 11483 ft | 222 kts | 207° |
| 2026-04-25 05:21 | 33.49811 | -118.76640 | 11505 ft | 220 kts | 209° |
| 2026-04-25 05:22 | 33.48484 | -118.77553 | 11511 ft | 220 kts | 211° |
| 2026-04-25 05:22 | 33.47196 | -118.78557 | 11492 ft | 221 kts | 215° |
| 2026-04-25 05:22 | 33.45974 | -118.79682 | 11491 ft | 221 kts | 221° |
| 2026-04-25 05:22 | 33.44831 | -118.80899 | 11521 ft | 219 kts | 220° |
| 2026-04-25 05:23 | 33.43604 | -118.81991 | 11501 ft | 221 kts | 215° |
| 2026-04-25 05:23 | 33.42335 | -118.83032 | 11505 ft | 220 kts | 212° |
| 2026-04-25 05:23 | 33.40990 | -118.83861 | 11671 ft | 217 kts | 204° |
| 2026-04-25 05:23 | 33.39560 | -118.84506 | 11780 ft | 222 kts | 198° |
| 2026-04-25 05:24 | 33.38013 | -118.85060 | 11492 ft | 245 kts | 194° |
| 2026-04-25 05:24 | 33.36335 | -118.85354 | 11335 ft | 255 kts | 184° |
| 2026-04-25 05:24 | 33.34494 | -118.85356 | 11207 ft | 264 kts | 178° |
| 2026-04-25 05:24 | 33.32682 | -118.85129 | 11348 ft | 260 kts | 172° |
| 2026-04-25 05:25 | 33.30908 | -118.84736 | 11491 ft | 258 kts | 165° |
| 2026-04-25 05:25 | 33.29243 | -118.83931 | 11517 ft | 260 kts | 154° |
| 2026-04-25 05:25 | 33.27645 | -118.82892 | 11525 ft | 262 kts | 148° |
| 2026-04-25 05:25 | 33.26204 | -118.81547 | 11526 ft | 265 kts | 136° |
| 2026-04-25 05:26 | 33.25003 | -118.79859 | 11527 ft | 267 kts | 128° |
| 2026-04-25 05:26 | 33.23882 | -118.78091 | 11527 ft | 268 kts | 127° |
| 2026-04-25 05:26 | 33.22773 | -118.76292 | 11527 ft | 269 kts | 127° |
| 2026-04-25 05:26 | 33.21662 | -118.74480 | 11525 ft | 270 kts | 126° |
| 2026-04-25 05:27 | 33.20550 | -118.72667 | 11526 ft | 271 kts | 126° |
| 2026-04-25 05:27 | 33.19418 | -118.70861 | 11526 ft | 272 kts | 129° |
| 2026-04-25 05:27 | 33.18199 | -118.69139 | 11525 ft | 272 kts | 131° |
| 2026-04-25 05:27 | 33.16959 | -118.67431 | 11527 ft | 272 kts | 131° |
| 2026-04-25 05:28 | 33.15713 | -118.65723 | 11526 ft | 273 kts | 131° |
| 2026-04-25 05:28 | 33.14463 | -118.64019 | 11526 ft | 273 kts | 131° |
| 2026-04-25 05:28 | 33.13215 | -118.62310 | 11527 ft | 273 kts | 131° |
| 2026-04-25 05:28 | 33.11965 | -118.60604 | 11525 ft | 273 kts | 131° |
| 2026-04-25 05:29 | 33.10711 | -118.58891 | 11526 ft | 274 kts | 131° |
| 2026-04-25 05:29 | 33.09477 | -118.57202 | 11526 ft | 274 kts | 131° |
| 2026-04-25 05:29 | 33.08225 | -118.55495 | 11527 ft | 274 kts | 131° |
| 2026-04-25 05:29 | 33.06974 | -118.53783 | 11526 ft | 274 kts | 131° |
| 2026-04-25 05:30 | 33.05705 | -118.52048 | 11526 ft | 274 kts | 131° |
| 2026-04-25 05:30 | 33.04453 | -118.50339 | 11526 ft | 274 kts | 131° |
| 2026-04-25 05:30 | 33.03219 | -118.48650 | 11526 ft | 274 kts | 131° |
| 2026-04-25 05:30 | 33.01948 | -118.46915 | 11526 ft | 274 kts | 131° |
| 2026-04-25 05:31 | 33.00713 | -118.45224 | 11526 ft | 274 kts | 131° |
| 2026-04-25 05:31 | 32.99460 | -118.43512 | 11526 ft | 274 kts | 131° |
| 2026-04-25 05:31 | 32.98208 | -118.41803 | 11526 ft | 274 kts | 131° |
| 2026-04-25 05:31 | 32.96956 | -118.40087 | 11527 ft | 274 kts | 131° |
| 2026-04-25 05:32 | 32.95704 | -118.38378 | 11527 ft | 274 kts | 131° |
| 2026-04-25 05:32 | 32.94452 | -118.36665 | 11527 ft | 274 kts | 131° |
| 2026-04-25 05:32 | 32.93202 | -118.34955 | 11527 ft | 274 kts | 131° |
| 2026-04-25 05:32 | 32.91947 | -118.33241 | 11527 ft | 274 kts | 131° |
| 2026-04-25 05:33 | 32.90695 | -118.31525 | 11527 ft | 274 kts | 131° |
| 2026-04-25 05:33 | 32.89443 | -118.29815 | 11527 ft | 274 kts | 131° |
| 2026-04-25 05:33 | 32.88193 | -118.28104 | 11527 ft | 274 kts | 131° |
| 2026-04-25 05:33 | 32.86942 | -118.26391 | 11527 ft | 274 kts | 131° |
| 2026-04-25 05:34 | 32.85689 | -118.24680 | 11527 ft | 274 kts | 131° |
| 2026-04-25 05:34 | 32.84438 | -118.22966 | 11527 ft | 274 kts | 131° |
| 2026-04-25 05:34 | 32.83187 | -118.21257 | 11527 ft | 274 kts | 131° |
| 2026-04-25 05:34 | 32.81937 | -118.19545 | 11527 ft | 274 kts | 131° |
| 2026-04-25 05:35 | 32.80688 | -118.17835 | 11527 ft | 274 kts | 131° |
| 2026-04-25 05:35 | 32.79436 | -118.16126 | 11527 ft | 274 kts | 131° |
| 2026-04-25 05:35 | 32.78187 | -118.14412 | 11527 ft | 274 kts | 131° |
| 2026-04-25 05:35 | 32.76938 | -118.12704 | 11527 ft | 274 kts | 131° |
| 2026-04-25 05:36 | 32.75703 | -118.11014 | 11527 ft | 274 kts | 131° |
| 2026-04-25 05:36 | 32.74436 | -118.09278 | 11527 ft | 274 kts | 131° |
| 2026-04-25 05:36 | 32.73185 | -118.07569 | 11527 ft | 274 kts | 131° |
| 2026-04-25 05:36 | 32.71938 | -118.05858 | 11527 ft | 274 kts | 131° |
| 2026-04-25 05:37 | 32.70689 | -118.04149 | 11527 ft | 274 kts | 131° |
| 2026-04-25 05:37 | 32.69439 | -118.02439 | 11527 ft | 274 kts | 131° |
| 2026-04-25 05:37 | 32.68191 | -118.00728 | 11527 ft | 274 kts | 131° |
| 2026-04-25 05:37 | 32.66957 | -117.99041 | 11527 ft | 274 kts | 131° |
| 2026-04-25 05:38 | 32.65710 | -117.97330 | 11527 ft | 274 kts | 131° |
| 2026-04-25 05:38 | 32.64447 | -117.95601 | 11527 ft | 274 kts | 131° |
| 2026-04-25 05:38 | 32.63214 | -117.93915 | 11527 ft | 274 kts | 131° |
| 2026-04-25 05:38 | 32.61966 | -117.92203 | 11527 ft | 274 kts | 131° |
| 2026-04-25 05:39 | 32.60716 | -117.90494 | 11527 ft | 274 kts | 131° |
| 2026-04-25 05:39 | 32.59453 | -117.88762 | 11527 ft | 274 kts | 131° |
| 2026-04-25 05:39 | 32.58223 | -117.87075 | 11527 ft | 274 kts | 131° |
| 2026-04-25 05:39 | 32.56975 | -117.85368 | 11527 ft | 274 kts | 131° |
| 2026-04-25 05:40 | 32.55729 | -117.83657 | 11527 ft | 274 kts | 131° |
| 2026-04-25 05:40 | 32.54482 | -117.81951 | 11527 ft | 274 kts | 131° |
| 2026-04-25 05:40 | 32.53234 | -117.80240 | 11527 ft | 274 kts | 131° |
| 2026-04-25 05:40 | 32.51989 | -117.78533 | 11527 ft | 274 kts | 131° |
| 2026-04-25 05:41 | 32.50738 | -117.76821 | 11527 ft | 274 kts | 131° |
| 2026-04-25 05:41 | 32.49494 | -117.75112 | 11527 ft | 274 kts | 131° |
| 2026-04-25 05:41 | 32.48247 | -117.73406 | 11527 ft | 274 kts | 131° |
| 2026-04-25 05:41 | 32.47001 | -117.71697 | 11527 ft | 274 kts | 131° |
| 2026-04-25 05:42 | 32.45755 | -117.69987 | 11526 ft | 274 kts | 131° |
| 2026-04-25 05:42 | 32.44508 | -117.68281 | 11527 ft | 274 kts | 131° |
| 2026-04-25 05:42 | 32.43261 | -117.66567 | 11527 ft | 274 kts | 131° |
| 2026-04-25 05:42 | 32.42015 | -117.64860 | 11527 ft | 274 kts | 131° |
| 2026-04-25 05:43 | 32.40770 | -117.63153 | 11527 ft | 274 kts | 131° |
| 2026-04-25 05:43 | 32.39526 | -117.61445 | 11527 ft | 274 kts | 131° |
| 2026-04-25 05:43 | 32.38278 | -117.59737 | 11527 ft | 274 kts | 131° |
| 2026-04-25 05:43 | 32.37036 | -117.58030 | 11527 ft | 274 kts | 131° |
| 2026-04-25 05:44 | 32.35788 | -117.56319 | 11526 ft | 274 kts | 131° |
| 2026-04-25 05:44 | 32.34546 | -117.54616 | 11526 ft | 274 kts | 131° |
| 2026-04-25 05:44 | 32.33301 | -117.52906 | 11526 ft | 274 kts | 131° |
| 2026-04-25 05:44 | 32.32055 | -117.51199 | 11526 ft | 274 kts | 131° |
| 2026-04-25 05:45 | 32.30811 | -117.49490 | 11527 ft | 274 kts | 131° |
| 2026-04-25 05:45 | 32.29566 | -117.47782 | 11527 ft | 274 kts | 131° |
| 2026-04-25 05:45 | 32.28336 | -117.46096 | 11526 ft | 274 kts | 131° |
| 2026-04-25 05:45 | 32.27095 | -117.44389 | 11527 ft | 274 kts | 131° |
| 2026-04-25 05:46 | 32.25848 | -117.42680 | 11527 ft | 274 kts | 131° |
| 2026-04-25 05:46 | 32.24605 | -117.40972 | 11527 ft | 274 kts | 131° |
| 2026-04-25 05:46 | 32.23362 | -117.39264 | 11526 ft | 274 kts | 130° |
| 2026-04-25 05:46 | 32.22250 | -117.37439 | 11525 ft | 274 kts | 121° |
| 2026-04-25 05:47 | 32.21423 | -117.35414 | 11523 ft | 274 kts | 111° |
| 2026-04-25 05:47 | 32.20931 | -117.33238 | 11520 ft | 275 kts | 99° |
| 2026-04-25 05:47 | 32.20802 | -117.30989 | 11520 ft | 274 kts | 90° |
| 2026-04-25 05:47 | 32.20851 | -117.28738 | 11521 ft | 274 kts | 88° |
| 2026-04-25 05:48 | 32.20941 | -117.26486 | 11522 ft | 274 kts | 87° |
| 2026-04-25 05:48 | 32.21038 | -117.24236 | 11522 ft | 274 kts | 87° |
| 2026-04-25 05:48 | 32.21142 | -117.21984 | 11522 ft | 274 kts | 87° |
| 2026-04-25 05:48 | 32.21244 | -117.19729 | 11522 ft | 274 kts | 86° |
| 2026-04-25 05:49 | 32.21485 | -117.17530 | 11521 ft | 274 kts | 80° |
| 2026-04-25 05:49 | 32.21825 | -117.15314 | 11521 ft | 274 kts | 79° |
| 2026-04-25 05:49 | 32.22187 | -117.13099 | 11522 ft | 274 kts | 79° |
| 2026-04-25 05:49 | 32.22550 | -117.10888 | 11522 ft | 274 kts | 79° |
| 2026-04-25 05:50 | 32.22916 | -117.08673 | 11522 ft | 274 kts | 79° |
| 2026-04-25 05:50 | 32.23283 | -117.06459 | 11522 ft | 274 kts | 79° |
| 2026-04-25 05:50 | 32.23647 | -117.04245 | 11522 ft | 274 kts | 79° |
| 2026-04-25 05:50 | 32.24014 | -117.02032 | 11522 ft | 274 kts | 79° |
| 2026-04-25 05:51 | 32.24379 | -116.99821 | 11522 ft | 274 kts | 78° |
| 2026-04-25 05:51 | 32.24745 | -116.97605 | 11522 ft | 274 kts | 79° |
| 2026-04-25 05:51 | 32.25115 | -116.95391 | 11521 ft | 275 kts | 78° |
| 2026-04-25 05:51 | 32.25526 | -116.93187 | 11523 ft | 275 kts | 77° |
| 2026-04-25 05:52 | 32.25951 | -116.90984 | 11523 ft | 275 kts | 77° |
| 2026-04-25 05:52 | 32.26385 | -116.88780 | 11522 ft | 275 kts | 77° |
| 2026-04-25 05:52 | 32.26817 | -116.86579 | 11522 ft | 275 kts | 77° |
| 2026-04-25 05:52 | 32.27249 | -116.84375 | 11523 ft | 275 kts | 77° |
| 2026-04-25 05:53 | 32.27683 | -116.82175 | 11522 ft | 275 kts | 77° |
| 2026-04-25 05:53 | 32.28115 | -116.79974 | 11522 ft | 275 kts | 77° |
| 2026-04-25 05:53 | 32.28548 | -116.77772 | 11522 ft | 275 kts | 77° |
| 2026-04-25 05:53 | 32.28982 | -116.75569 | 11521 ft | 275 kts | 77° |
| 2026-04-25 05:54 | 32.29416 | -116.73370 | 11521 ft | 275 kts | 77° |
| 2026-04-25 05:54 | 32.29849 | -116.71170 | 11519 ft | 275 kts | 77° |
| 2026-04-25 05:54 | 32.30716 | -116.66769 | 11519 ft | 275 kts | 77° |
| 2026-04-25 05:55 | 32.31150 | -116.64566 | 11520 ft | 275 kts | 77° |
| 2026-04-25 05:55 | 32.31583 | -116.62365 | 11519 ft | 275 kts | 77° |
| 2026-04-25 05:55 | 32.32017 | -116.60161 | 11519 ft | 275 kts | 77° |
| 2026-04-25 05:55 | 32.32453 | -116.57960 | 11519 ft | 275 kts | 77° |
| 2026-04-25 05:56 | 32.32880 | -116.55785 | 11519 ft | 275 kts | 77° |
| 2026-04-25 05:56 | 32.33315 | -116.53587 | 11520 ft | 275 kts | 77° |
| 2026-04-25 05:56 | 32.33750 | -116.51384 | 11519 ft | 275 kts | 77° |
| 2026-04-25 05:56 | 32.34182 | -116.49190 | 11518 ft | 274 kts | 76° |
| 2026-04-25 05:57 | 32.34701 | -116.47020 | 11519 ft | 274 kts | 72° |
| 2026-04-25 05:57 | 32.35277 | -116.44872 | 11519 ft | 274 kts | 72° |
| 2026-04-25 05:57 | 32.35866 | -116.42731 | 11519 ft | 274 kts | 72° |
| 2026-04-25 05:57 | 32.36459 | -116.40589 | 11518 ft | 274 kts | 72° |
| 2026-04-25 05:58 | 32.37050 | -116.38446 | 11520 ft | 274 kts | 72° |
| 2026-04-25 05:58 | 32.37646 | -116.36301 | 11518 ft | 275 kts | 72° |
| 2026-04-25 05:58 | 32.38240 | -116.34153 | 11517 ft | 275 kts | 71° |
| 2026-04-25 05:58 | 32.38834 | -116.32004 | 11517 ft | 274 kts | 71° |
| 2026-04-25 05:59 | 32.39429 | -116.29859 | 11517 ft | 275 kts | 72° |
| 2026-04-25 05:59 | 32.39822 | -116.28436 | 11517 ft | 275 kts | 71° |
| 2026-04-25 05:59 | 32.40419 | -116.26287 | 11517 ft | 275 kts | 72° |
| 2026-04-25 05:59 | 32.41013 | -116.24140 | 11517 ft | 275 kts | 71° |
| 2026-04-25 06:00 | 32.41609 | -116.21991 | 11517 ft | 275 kts | 72° |
| 2026-04-25 06:00 | 32.42207 | -116.19839 | 11517 ft | 275 kts | 71° |
| 2026-04-25 06:00 | 32.42802 | -116.17685 | 11517 ft | 275 kts | 71° |
| 2026-04-25 06:00 | 32.43408 | -116.15502 | 11518 ft | 276 kts | 72° |
| 2026-04-25 06:01 | 32.43998 | -116.13377 | 11515 ft | 276 kts | 72° |
| 2026-04-25 06:01 | 32.44596 | -116.11216 | 11517 ft | 276 kts | 71° |
| 2026-04-25 06:01 | 32.45196 | -116.09057 | 11518 ft | 276 kts | 71° |
| 2026-04-25 06:01 | 32.45795 | -116.06900 | 11518 ft | 276 kts | 71° |
| 2026-04-25 06:02 | 32.46394 | -116.04736 | 11518 ft | 276 kts | 72° |
| 2026-04-25 06:02 | 32.46994 | -116.02575 | 11519 ft | 276 kts | 71° |
| 2026-04-25 06:02 | 32.47594 | -116.00418 | 11520 ft | 276 kts | 72° |
| 2026-04-25 06:02 | 32.48194 | -115.98254 | 11519 ft | 277 kts | 71° |
| 2026-04-25 06:03 | 32.48771 | -115.96175 | 11520 ft | 276 kts | 71° |